Time;durP1;ratioP1;P1;durP2;ratioP2;P2;SDS_P1;SDS_P2;PMS_P1;PMS_P2;Temp;Humidity;BMP_temperature;BMP_pressure;BME280_temperature;BME280_humidity;BME280_pressure;Samples;Min_cycle;Max_cycle;Signal;HPM_P1;HPM_P2
2021/01/15 00:01:05;;;;;;;21.20;17.00;;;;;;;0.28;72.64;100361.25;10176012;29;20062;-64
2021/01/15 00:06:07;;;;;;;19.98;18.02;;;;;;;0.02;73.51;100366.88;10176673;29;20048;-64
2021/01/15 00:11:17;;;;;;;23.75;18.67;;;;;;;-0.13;74.13;100375.25;10177919;29;20076;-64
2021/01/15 00:16:23;;;;;;;20.27;18.23;;;;;;;-0.03;74.14;100379.72;10177010;29;20068;-64
2021/01/15 00:21:35;;;;;;;24.10;18.08;;;;;;;-0.14;74.54;100383.81;10182048;29;20529;-64
2021/01/15 00:26:40;;;;;;;18.02;16.38;;;;;;;-0.07;74.48;100395.16;10183247;29;20566;-64
2021/01/15 00:31:47;;;;;;;19.63;17.10;;;;;;;-0.06;74.62;100409.81;10166284;29;20078;-65
2021/01/15 00:36:49;;;;;;;15.50;14.02;;;;;;;-0.11;74.73;100395.94;10182376;29;20056;-65
2021/01/15 00:41:51;;;;;;;20.40;18.40;;;;;;;-0.05;74.46;100399.47;10175838;29;20067;-64
2021/01/15 00:46:54;;;;;;;19.60;17.63;;;;;;;0.05;74.18;100407.41;10176364;29;20044;-65
2021/01/15 00:51:56;;;;;;;20.40;18.35;;;;;;;-0.05;74.49;100414.13;10179759;29;20126;-65
2021/01/15 00:57:03;;;;;;;18.88;17.08;;;;;;;0.00;74.36;100404.75;10183689;29;20103;-65
2021/01/15 01:02:06;;;;;;;21.38;19.25;;;;;;;-0.16;74.74;100419.13;10183276;29;20107;-64
2021/01/15 01:07:09;;;;;;;20.15;18.35;;;;;;;-0.26;75.61;100410.34;10182238;29;20048;-64
2021/01/15 01:12:10;;;;;;;20.83;18.75;;;;;;;-0.03;74.84;100421.06;10181844;29;20187;-65
2021/01/15 01:17:11;;;;;;;21.73;19.85;;;;;;;-0.20;75.36;100422.47;10182890;29;20046;-65
2021/01/15 01:22:13;;;;;;;25.58;20.05;;;;;;;-0.05;74.82;100417.56;10182348;29;20554;-65
2021/01/15 01:27:14;;;;;;;24.15;19.00;;;;;;;-0.16;75.33;100420.84;10181751;29;20056;-64
2021/01/15 01:32:15;;;;;;;21.90;19.83;;;;;;;0.02;75.06;100415.13;10182178;29;20048;-64
2021/01/15 01:37:17;;;;;;;21.15;18.90;;;;;;;-0.13;75.29;100414.00;10181690;29;20079;-64
2021/01/15 01:42:18;;;;;;;26.77;19.90;;;;;;;-0.16;75.66;100413.94;10181931;29;20099;-65
2021/01/15 01:47:20;;;;;;;21.45;19.33;;;;;;;-0.22;75.86;100413.84;10181906;29;20080;-64
2021/01/15 01:52:22;;;;;;;21.17;18.88;;;;;;;0.03;75.49;100409.09;10181742;29;20100;-64
2021/01/15 01:57:23;;;;;;;20.33;18.38;;;;;;;-0.05;75.26;100403.78;10181443;29;20099;-64
2021/01/15 02:02:25;;;;;;;21.98;19.05;;;;;;;0.03;75.19;100411.69;10180391;29;20071;-65
2021/01/15 02:07:41;;;;;;;23.60;19.75;;;;;;;-0.09;75.57;100405.47;10181488;29;20372;-64
2021/01/15 02:12:57;;;;;;;21.35;19.40;;;;;;;-0.02;75.48;100398.69;10181923;29;20044;-63
2021/01/15 02:18:08;;;;;;;23.23;20.20;;;;;;;-0.12;75.82;100404.53;10181516;29;20079;-68
2021/01/15 02:23:39;;;;;;;23.40;20.17;;;;;;;-0.15;75.97;100409.66;10180814;29;20550;-64
2021/01/15 02:29:19;;;;;;;22.13;19.85;;;;;;;-0.07;75.53;100405.50;10180622;29;20044;-65
2021/01/15 02:34:36;;;;;;;25.75;20.42;;;;;;;-0.14;75.79;100403.63;10098181;29;20053;-65
2021/01/15 02:39:59;;;;;;;27.52;21.10;;;;;;;-0.17;76.08;100406.19;10098424;29;20084;-64
2021/01/15 02:45:04;;;;;;;23.63;21.27;;;;;;;-0.16;75.79;100411.38;10098679;29;20460;-64
2021/01/15 02:50:10;;;;;;;23.98;21.50;;;;;;;-0.08;75.77;100401.16;10097794;29;20060;-64
2021/01/15 02:55:12;;;;;;;22.02;19.83;;;;;;;-0.17;75.73;100409.63;10097495;29;20045;-65
2021/01/15 03:00:19;;;;;;;23.15;20.80;;;;;;;-0.15;75.89;100409.66;10097332;29;20132;-65
2021/01/15 03:05:23;;;;;;;22.88;20.45;;;;;;;-0.16;75.90;100400.16;10155358;23;20050;-68
2021/01/15 03:10:25;;;;;;;25.27;21.60;;;;;;;-0.18;75.95;100392.38;10181957;29;20048;-66
2021/01/15 03:15:27;;;;;;;24.20;20.90;;;;;;;-0.06;75.87;100395.16;10181176;29;20091;-68
2021/01/15 03:20:28;;;;;;;24.08;20.33;;;;;;;0.20;75.22;100393.00;10182456;29;20044;-67
2021/01/15 03:25:30;;;;;;;24.77;19.98;;;;;;;0.14;75.09;100397.22;10182482;29;20514;-68
2021/01/15 03:30:31;;;;;;;21.85;19.50;;;;;;;-0.02;75.45;100402.13;10180644;29;20048;-67
2021/01/15 03:35:33;;;;;;;22.88;20.23;;;;;;;0.03;75.58;100404.78;10180714;29;20410;-67
2021/01/15 03:40:42;;;;;;;24.02;21.50;;;;;;;-0.03;75.29;100408.16;10180283;29;20046;-68
2021/01/15 03:45:45;;;;;;;21.48;18.85;;;;;;;-0.02;75.51;100409.00;10180349;29;20517;-68
2021/01/15 03:50:47;;;;;;;21.35;18.77;;;;;;;0.01;75.76;100408.22;10180127;29;20075;-66
2021/01/15 03:55:49;;;;;;;22.33;20.15;;;;;;;-0.01;75.49;100400.41;10179089;29;20044;-67
2021/01/15 04:00:50;;;;;;;21.10;19.23;;;;;;;0.02;75.61;100413.41;10179507;29;20051;-68
2021/01/15 04:05:51;;;;;;;21.50;19.17;;;;;;;0.09;75.54;100409.19;10177551;29;20430;-66
2021/01/15 04:10:52;;;;;;;21.92;19.42;;;;;;;-0.09;75.69;100418.41;10177148;29;20375;-67
2021/01/15 04:15:54;;;;;;;20.88;18.98;;;;;;;-0.03;76.16;100415.03;10177284;29;20082;-67
2021/01/15 04:20:55;;;;;;;24.63;20.58;;;;;;;-0.14;76.23;100408.78;10176581;29;20044;-67
2021/01/15 04:25:57;;;;;;;21.27;19.33;;;;;;;-0.02;76.01;100406.44;10178144;29;20051;-68
2021/01/15 04:30:58;;;;;;;22.50;20.05;;;;;;;-0.08;76.40;100412.38;10179062;29;20124;-68
2021/01/15 04:36:00;;;;;;;21.42;19.63;;;;;;;-0.20;76.84;100408.69;10179042;29;20044;-67
2021/01/15 04:41:02;;;;;;;21.73;19.65;;;;;;;-0.04;76.24;100408.13;10179573;29;20406;-67
2021/01/15 04:46:04;;;;;;;21.92;19.70;;;;;;;-0.08;76.44;100409.78;10179093;29;20040;-67
2021/01/15 04:51:14;;;;;;;26.75;20.85;;;;;;;-0.17;76.86;100416.50;10176986;29;20398;-67
2021/01/15 04:56:16;;;;;;;22.40;20.20;;;;;;;0.06;76.28;100416.91;10177881;29;20386;-68
2021/01/15 05:01:19;;;;;;;25.02;22.35;;;;;;;-0.11;76.37;100408.84;10177784;29;20036;-67
2021/01/15 05:06:25;;;;;;;23.20;20.77;;;;;;;-0.13;76.58;100419.19;10176167;29;20080;-68
2021/01/15 05:11:28;;;;;;;22.08;19.90;;;;;;;-0.01;76.35;100424.53;10176475;29;20068;-67
2021/01/15 05:16:31;;;;;;;26.40;21.85;;;;;;;-0.17;76.70;100435.47;10175814;29;20076;-66
2021/01/15 05:21:33;;;;;;;20.60;18.80;;;;;;;0.03;76.24;100434.94;10175634;29;20045;-67
2021/01/15 05:26:39;;;;;;;24.05;21.42;;;;;;;-0.14;76.54;100438.09;10176058;29;20052;-67
2021/01/15 05:31:47;;;;;;;22.10;20.10;;;;;;;-0.24;77.08;100436.19;10176316;29;20046;-67
2021/01/15 05:36:48;;;;;;;25.77;19.85;;;;;;;-0.04;76.39;100444.31;10178408;29;20121;-67
2021/01/15 05:41:58;;;;;;;28.80;20.67;;;;;;;-0.15;76.68;100445.81;10183916;29;20059;-67
2021/01/15 05:47:01;;;;;;;23.50;19.23;;;;;;;-0.08;76.46;100456.31;10183750;29;20062;-67
2021/01/15 05:52:07;;;;;;;21.25;19.10;;;;;;;-0.10;76.38;100452.81;10182775;29;20491;-67
2021/01/15 05:57:25;;;;;;;21.10;18.83;;;;;;;0.06;76.46;100453.97;10183629;29;20487;-68
2021/01/15 06:02:26;;;;;;;21.27;19.10;;;;;;;-0.12;76.64;100462.25;10183352;29;20048;-67
2021/01/15 06:07:28;;;;;;;24.95;20.67;;;;;;;0.01;76.26;100462.47;10183318;29;20405;-67
2021/01/15 06:12:41;;;;;;;18.17;16.58;;;;;;;0.02;76.08;100470.25;10182098;29;20048;-66
2021/01/15 06:17:45;;;;;;;21.83;19.52;;;;;;;-0.15;76.50;100485.44;10180868;29;20048;-68
2021/01/15 06:22:49;;;;;;;20.92;19.13;;;;;;;-0.12;76.88;100488.09;10181966;29;20048;-67
2021/01/15 06:27:55;;;;;;;18.95;17.00;;;;;;;-0.01;76.62;100502.06;10182609;29;20542;-67
2021/01/15 06:33:13;;;;;;;18.80;16.90;;;;;;;0.18;76.06;100498.13;10181550;29;20493;-67
2021/01/15 06:38:19;;;;;;;17.88;16.02;;;;;;;0.12;75.70;100494.53;10181330;29;20044;-67
2021/01/15 06:43:22;;;;;;;20.50;18.35;;;;;;;0.01;75.94;100506.41;10180330;29;20072;-66
2021/01/15 06:48:31;;;;;;;20.95;18.75;;;;;;;-0.14;76.38;100501.81;10179035;29;20041;-67
2021/01/15 06:53:41;;;;;;;22.20;19.90;;;;;;;-0.05;76.64;100505.44;10179818;29;20121;-67
2021/01/15 06:58:43;;;;;;;19.30;17.35;;;;;;;-0.05;76.46;100509.75;10179399;29;20117;-66
2021/01/15 07:03:51;;;;;;;21.42;18.58;;;;;;;-0.05;76.61;100509.75;10177789;29;20051;-67
2021/01/15 07:09:07;;;;;;;22.17;18.00;;;;;;;-0.32;77.10;100529.03;10179323;29;20067;-67
2021/01/15 07:14:09;;;;;;;19.77;17.75;;;;;;;-0.07;76.81;100532.97;10179311;29;20107;-66
2021/01/15 07:19:19;;;;;;;22.23;19.10;;;;;;;-0.12;76.80;100534.59;10178960;29;20137;-67
2021/01/15 07:24:28;;;;;;;21.85;18.70;;;;;;;-0.14;76.84;100541.44;10179673;29;20047;-67
2021/01/15 07:29:33;;;;;;;19.48;17.33;;;;;;;-0.06;76.65;100542.47;10176638;29;20058;-66
2021/01/15 07:34:38;;;;;;;19.83;15.57;;;;;;;0.10;75.97;100543.63;10178880;29;20048;-66
2021/01/15 07:40:18;;;;;;;18.25;16.42;;;;;;;-0.07;76.36;100547.63;10176707;29;20041;-66
2021/01/15 07:45:25;;;;;;;21.00;16.83;;;;;;;0.01;76.06;100561.56;10178731;29;20099;-66
2021/01/15 07:50:31;;;;;;;19.30;17.33;;;;;;;-0.15;76.75;100570.72;10177583;29;20050;-66
2021/01/15 07:55:49;;;;;;;21.77;18.67;;;;;;;-0.08;76.62;100576.91;10177666;29;20048;-66
2021/01/15 08:00:51;;;;;;;20.58;18.48;;;;;;;-0.16;77.16;100575.84;10175663;29;20071;-67
2021/01/15 08:05:56;;;;;;;21.73;19.38;;;;;;;-0.12;77.11;100572.50;10176996;29;20521;-67
2021/01/15 08:11:12;;;;;;;25.67;19.27;;;;;;;-0.29;76.91;100583.34;10176412;29;20048;-67
2021/01/15 08:16:14;;;;;;;19.02;17.23;;;;;;;-0.15;76.85;100586.22;10176562;29;20476;-67
2021/01/15 08:21:19;;;;;;;18.88;17.17;;;;;;;-0.05;76.37;100580.38;10177279;29;20528;-67
2021/01/15 08:26:32;;;;;;;20.10;16.70;;;;;;;-0.03;76.30;100573.53;10177254;29;20048;-67
2021/01/15 08:31:34;;;;;;;18.13;16.30;;;;;;;0.07;76.08;100577.19;10178503;29;20052;-67
2021/01/15 08:36:40;;;;;;;20.08;17.15;;;;;;;0.06;76.02;100572.00;10177091;29;20048;-67
2021/01/15 08:41:43;;;;;;;19.98;17.88;;;;;;;-0.07;76.90;100587.25;10176583;29;20044;-67
2021/01/15 08:46:45;;;;;;;19.27;17.58;;;;;;;0.05;76.42;100586.63;10175572;29;20052;-67
2021/01/15 08:51:49;;;;;;;18.08;15.90;;;;;;;-0.01;76.09;100592.53;10178820;29;20052;-66
2021/01/15 08:56:51;;;;;;;17.83;15.77;;;;;;;0.17;75.88;100598.91;10179016;29;20052;-67
2021/01/15 09:01:54;;;;;;;15.57;14.10;;;;;;;0.11;75.46;100601.38;10180073;29;20052;-67
2021/01/15 09:06:57;;;;;;;18.23;14.90;;;;;;;0.17;75.28;100601.47;10176750;29;20103;-65
2021/01/15 09:12:03;;;;;;;15.73;14.15;;;;;;;0.13;75.29;100607.44;10181976;29;20036;-65
2021/01/15 09:17:08;;;;;;;17.33;15.50;;;;;;;0.27;75.18;100603.44;10185040;29;20044;-63
2021/01/15 09:22:17;;;;;;;20.25;16.65;;;;;;;0.16;75.72;100612.69;10183393;29;20084;-64
2021/01/15 09:27:20;;;;;;;22.55;17.55;;;;;;;0.03;76.31;100616.72;10181945;29;20080;-62
2021/01/15 09:32:21;;;;;;;21.17;17.00;;;;;;;0.11;76.22;100622.06;10182720;29;20044;-64
2021/01/15 09:37:23;;;;;;;22.38;18.08;;;;;;;0.04;76.33;100618.47;10183332;29;20048;-65
2021/01/15 09:42:24;;;;;;;21.63;18.85;;;;;;;-0.02;76.48;100626.97;10184049;29;20494;-64
2021/01/15 09:47:29;;;;;;;19.30;17.23;;;;;;;0.06;75.74;100636.59;10181427;29;20103;-64
2021/01/15 09:52:31;;;;;;;19.63;17.73;;;;;;;-0.04;76.01;100633.84;10179826;29;20083;-64
2021/01/15 09:57:42;;;;;;;21.85;17.42;;;;;;;0.01;75.81;100638.22;10179116;29;20048;-65
2021/01/15 10:02:44;;;;;;;18.10;16.25;;;;;;;-0.03;75.86;100630.41;10192078;29;20052;-64
2021/01/15 10:07:46;;;;;;;18.63;16.98;;;;;;;-0.02;75.81;100633.84;10182376;29;20076;-66
2021/01/15 10:12:47;;;;;;;18.58;16.83;;;;;;;-0.11;75.91;100638.84;10174526;29;20044;-63
2021/01/15 10:17:48;;;;;;;18.88;16.73;;;;;;;0.03;75.35;100639.13;10181010;29;20063;-66
2021/01/15 10:22:50;;;;;;;17.38;15.85;;;;;;;0.08;74.94;100642.66;10180397;29;20040;-66
2021/01/15 10:27:52;;;;;;;16.42;14.82;;;;;;;-0.04;75.27;100646.75;10180519;29;20048;-65
2021/01/15 10:32:53;;;;;;;20.70;15.75;;;;;;;-0.10;75.75;100646.63;10180246;29;20048;-65
2021/01/15 10:37:54;;;;;;;16.95;15.38;;;;;;;-0.18;75.58;100645.56;10179044;29;20052;-65
2021/01/15 10:42:55;;;;;;;16.73;15.23;;;;;;;-0.29;75.74;100655.69;10179174;29;20103;-66
2021/01/15 10:47:57;;;;;;;18.45;16.75;;;;;;;-0.20;75.60;100649.84;10179118;29;20062;-64
2021/01/15 10:52:58;;;;;;;17.67;16.02;;;;;;;-0.18;75.18;100653.31;10180039;29;20068;-62
2021/01/15 10:57:59;;;;;;;16.10;14.55;;;;;;;-0.34;74.98;100652.13;10179028;29;20168;-65
2021/01/15 11:03:01;;;;;;;16.23;13.93;;;;;;;-0.18;74.67;100652.47;10178067;29;20096;-65
2021/01/15 11:08:02;;;;;;;20.30;15.90;;;;;;;-0.28;74.53;100656.56;10179781;29;20458;-64
2021/01/15 11:13:03;;;;;;;15.32;13.93;;;;;;;-0.18;74.39;100655.03;10179886;29;20044;-64
2021/01/15 11:18:04;;;;;;;15.15;13.75;;;;;;;-0.08;73.84;100651.84;10178261;29;20056;-65
2021/01/15 11:23:06;;;;;;;14.73;13.27;;;;;;;0.15;73.34;100658.34;10178793;29;20055;-65
2021/01/15 11:28:07;;;;;;;15.20;13.80;;;;;;;-0.13;74.01;100659.50;10178934;29;20078;-65
2021/01/15 11:33:08;;;;;;;13.73;12.50;;;;;;;-0.12;73.73;100661.22;10178160;29;20044;-64
2021/01/15 11:38:21;;;;;;;14.68;13.30;;;;;;;-0.30;74.22;100653.09;10177553;29;20550;-64
2021/01/15 11:43:23;;;;;;;14.57;13.27;;;;;;;-0.30;73.60;100647.91;10178365;29;20052;-65
2021/01/15 11:48:24;;;;;;;15.20;13.70;;;;;;;-0.38;74.00;100655.50;10179212;29;20051;-65
2021/01/15 11:53:25;;;;;;;13.38;12.23;;;;;;;-0.31;72.92;100656.47;10178269;29;20051;-64
2021/01/15 11:58:26;;;;;;;14.73;13.43;;;;;;;-0.35;73.36;100659.88;10178479;29;20056;-64
2021/01/15 12:03:28;;;;;;;12.40;11.27;;;;;;;-0.17;72.37;100659.41;10178173;29;20048;-65
2021/01/15 12:08:29;;;;;;;13.35;12.20;;;;;;;-0.38;73.08;100652.91;10179503;29;20047;-66
2021/01/15 12:13:31;;;;;;;13.00;11.65;;;;;;;-0.41;72.95;100660.56;10186371;29;20051;-65
2021/01/15 12:18:33;;;;;;;15.15;13.75;;;;;;;-0.41;73.80;100651.97;10186854;29;20073;-65
2021/01/15 12:23:35;;;;;;;15.52;14.02;;;;;;;-0.36;73.98;100652.94;10185745;29;20052;-66
2021/01/15 12:28:36;;;;;;;15.02;13.63;;;;;;;-0.51;73.87;100649.16;10182875;29;20462;-65
2021/01/15 12:33:37;;;;;;;13.55;12.35;;;;;;;-0.51;73.14;100651.75;10184652;29;20123;-66
2021/01/15 12:38:39;;;;;;;12.75;11.65;;;;;;;-0.27;72.30;100646.28;10183383;29;20048;-67
2021/01/15 12:43:41;;;;;;;14.38;13.07;;;;;;;-0.47;72.19;100651.84;10182214;29;20079;-64
2021/01/15 12:48:42;;;;;;;14.23;12.82;;;;;;;-0.55;72.60;100656.81;10179726;29;20044;-65
2021/01/15 12:53:43;;;;;;;14.35;13.00;;;;;;;-0.67;73.44;100659.97;10179178;29;20052;-66
2021/01/15 12:58:45;;;;;;;14.82;13.45;;;;;;;-0.58;73.61;100662.75;10179749;29;20048;-65
2021/01/15 13:03:46;;;;;;;14.50;13.00;;;;;;;-0.54;72.93;100654.25;10178600;29;20112;-66
2021/01/15 13:08:47;;;;;;;13.48;12.27;;;;;;;-0.81;73.25;100664.81;10178823;29;20070;-66
2021/01/15 13:13:48;;;;;;;12.48;11.40;;;;;;;-0.66;72.86;100664.31;10178211;29;20083;-66
2021/01/15 13:18:50;;;;;;;15.07;11.80;;;;;;;-0.81;72.87;100666.53;10178885;29;20147;-66
2021/01/15 13:23:51;;;;;;;13.27;12.02;;;;;;;-0.71;73.16;100668.47;10179933;29;20123;-66
2021/01/15 13:28:54;;;;;;;13.43;12.13;;;;;;;-0.82;73.41;100667.34;10178961;29;20048;-65
2021/01/15 13:33:56;;;;;;;15.68;14.25;;;;;;;-0.88;73.74;100673.25;10179145;29;20052;-65
2021/01/15 13:38:58;;;;;;;13.23;11.70;;;;;;;-0.94;73.23;100677.38;10178351;29;20067;-63
2021/01/15 13:43:59;;;;;;;9.80;8.93;;;;;;;-1.16;72.39;100686.28;10178252;29;20554;-67
2021/01/15 13:49:01;;;;;;;10.80;9.80;;;;;;;-1.23;72.72;100698.16;10178373;29;20044;-66
2021/01/15 13:54:04;;;;;;;10.98;8.82;;;;;;;-1.12;72.10;100701.88;10177371;29;20054;-65
2021/01/15 13:59:06;;;;;;;10.02;7.85;;;;;;;-1.22;71.67;100701.59;10180209;29;20040;-65
2021/01/15 14:04:07;;;;;;;9.10;8.30;;;;;;;-1.25;71.75;100710.13;10183915;29;20048;-70
2021/01/15 14:09:09;;;;;;;9.93;9.02;;;;;;;-1.16;71.73;100696.59;10183350;29;20055;-65
2021/01/15 14:14:10;;;;;;;10.18;9.25;;;;;;;-1.29;71.78;100704.00;10182289;29;20149;-66
2021/01/15 14:19:11;;;;;;;10.40;9.43;;;;;;;-1.29;72.46;100704.00;10180941;29;20537;-65
2021/01/15 14:24:13;;;;;;;11.13;10.10;;;;;;;-1.25;72.05;100706.66;10184287;29;20051;-67
2021/01/15 14:29:15;;;;;;;10.93;9.93;;;;;;;-1.19;72.62;100720.63;10184837;29;20071;-66
2021/01/15 14:34:16;;;;;;;10.68;9.57;;;;;;;-1.21;72.63;100719.69;10186407;29;20052;-66
2021/01/15 14:39:18;;;;;;;11.50;10.50;;;;;;;-1.13;72.54;100719.91;10186972;29;20103;-65
2021/01/15 14:44:19;;;;;;;11.68;10.48;;;;;;;-1.31;72.85;100728.91;10182413;29;20135;-64
2021/01/15 14:49:21;;;;;;;10.93;9.93;;;;;;;-1.19;72.01;100723.19;10181240;29;20410;-64
2021/01/15 14:54:22;;;;;;;10.35;9.35;;;;;;;-1.28;72.51;100730.69;10180234;29;20502;-65
2021/01/15 14:59:41;;;;;;;11.82;10.73;;;;;;;-1.32;73.15;100732.31;10180141;29;20040;-65
2021/01/15 15:04:42;;;;;;;12.27;11.02;;;;;;;-1.23;72.29;100733.41;10180518;29;20048;-67
2021/01/15 15:09:43;;;;;;;11.52;10.48;;;;;;;-1.19;72.39;100732.66;10180221;29;20515;-68
2021/01/15 15:14:45;;;;;;;11.40;10.30;;;;;;;-1.22;71.89;100733.44;10180869;29;20048;-66
2021/01/15 15:19:46;;;;;;;11.55;10.45;;;;;;;-1.33;72.02;100739.97;10181226;29;20050;-67
2021/01/15 15:24:48;;;;;;;13.18;11.35;;;;;;;-1.26;72.28;100741.91;10180918;29;20083;-66
2021/01/15 15:29:50;;;;;;;11.13;10.02;;;;;;;-1.20;71.70;100738.63;10182714;29;20546;-67
2021/01/15 15:34:52;;;;;;;11.38;10.02;;;;;;;-1.11;71.16;100747.47;10182608;29;20056;-66
2021/01/15 15:39:54;;;;;;;11.23;10.10;;;;;;;-1.28;71.85;100751.34;10182507;29;20058;-67
2021/01/15 15:44:56;;;;;;;13.13;11.90;;;;;;;-1.31;72.13;100744.38;10180419;29;20048;-67
2021/01/15 15:49:57;;;;;;;18.15;13.55;;;;;;;-1.16;71.99;100756.81;10179669;29;20056;-66
2021/01/15 15:54:58;;;;;;;14.82;13.43;;;;;;;-1.24;71.97;100752.25;10180001;29;20044;-67
2021/01/15 15:59:59;;;;;;;13.00;11.85;;;;;;;-1.19;71.61;100759.31;10179805;29;20036;-67
2021/01/15 16:05:01;;;;;;;13.82;12.45;;;;;;;-1.48;72.66;100765.34;10179145;29;20047;-67
2021/01/15 16:10:05;;;;;;;12.82;11.63;;;;;;;-1.33;71.61;100770.94;10179302;29;20397;-67
2021/01/15 16:15:06;;;;;;;12.40;11.30;;;;;;;-1.45;72.18;100770.63;10179002;29;20044;-67
2021/01/15 16:20:11;;;;;;;11.85;10.73;;;;;;;-1.27;71.89;100778.88;10177240;29;20051;-67
2021/01/15 16:25:13;;;;;;;15.75;12.18;;;;;;;-1.41;71.71;100783.63;10178629;29;20044;-67
2021/01/15 16:30:15;;;;;;;13.73;12.48;;;;;;;-1.49;72.23;100786.81;10177315;29;20096;-66
2021/01/15 16:35:17;;;;;;;12.18;11.10;;;;;;;-1.46;71.98;100792.94;10178634;29;20044;-67
2021/01/15 16:40:18;;;;;;;11.48;10.35;;;;;;;-1.54;71.98;100791.84;10178071;29;20044;-67
2021/01/15 16:45:20;;;;;;;84.50;58.35;;;;;;;-1.42;71.95;100797.34;10178387;29;20074;-67
2021/01/15 16:50:23;;;;;;;160.68;78.28;;;;;;;-1.38;72.28;100794.03;10174718;29;20048;-68
2021/01/15 16:55:24;;;;;;;12.02;10.93;;;;;;;-1.40;72.14;100805.13;10172828;29;20129;-66
2021/01/15 17:00:25;;;;;;;366.70;241.02;;;;;;;-1.50;71.90;100800.56;10171367;29;20074;-67
2021/01/15 17:05:29;;;;;;;96.03;59.17;;;;;;;-1.49;72.26;100807.44;10175027;29;20040;-66
2021/01/15 17:10:32;;;;;;;22.70;18.38;;;;;;;-1.46;71.98;100811.00;10174384;29;20044;-66
2021/01/15 17:15:34;;;;;;;15.65;14.07;;;;;;;-1.48;72.19;100809.19;10171568;29;20052;-67
2021/01/15 17:20:35;;;;;;;17.48;15.68;;;;;;;-1.68;72.88;100809.50;10174312;29;20048;-66
2021/01/15 17:25:36;;;;;;;22.77;20.60;;;;;;;-1.47;72.70;100818.66;10173476;29;20111;-66
2021/01/15 17:30:38;;;;;;;15.40;13.90;;;;;;;-1.66;72.75;100827.56;10174265;29;20059;-67
2021/01/15 17:35:39;;;;;;;13.80;12.60;;;;;;;-1.58;72.72;100828.69;10183545;29;20064;-66
2021/01/15 17:40:41;;;;;;;15.25;13.80;;;;;;;-1.50;72.24;100837.53;10183082;29;20099;-67
2021/01/15 17:45:43;;;;;;;27.40;23.00;;;;;;;-1.48;72.56;100845.28;10186204;29;20052;-67
2021/01/15 17:50:44;;;;;;;14.65;13.18;;;;;;;-1.58;72.72;100849.31;10182607;29;20044;-69
2021/01/15 17:55:53;;;;;;;27.58;24.15;;;;;;;-1.52;72.71;100845.19;10181802;29;20514;-68
2021/01/15 18:00:55;;;;;;;14.85;13.45;;;;;;;-1.58;72.58;100847.59;10182997;29;20055;-66
2021/01/15 18:05:56;;;;;;;149.13;75.65;;;;;;;-1.61;73.12;100852.66;10182712;29;20052;-66
2021/01/15 18:10:57;;;;;;;13.93;12.63;;;;;;;-1.69;73.06;100845.50;10182879;29;20052;-67
2021/01/15 18:15:59;;;;;;;18.13;14.05;;;;;;;-1.69;73.15;100845.50;10183794;29;20067;-67
2021/01/15 18:21:13;;;;;;;75.00;42.88;;;;;;;-1.73;73.74;100848.81;10183712;29;20099;-66
2021/01/15 18:26:15;;;;;;;24.50;19.40;;;;;;;-1.75;73.49;100859.09;10183012;29;20495;-67
2021/01/15 18:31:16;;;;;;;13.77;12.57;;;;;;;-1.63;73.25;100856.91;10185127;29;20104;-66
2021/01/15 18:36:22;;;;;;;39.35;25.75;;;;;;;-1.61;72.79;100856.94;10181879;29;20520;-68
2021/01/15 18:41:24;;;;;;;16.35;14.85;;;;;;;-1.78;73.13;100861.56;10185416;29;20055;-68
2021/01/15 18:46:25;;;;;;;12.38;11.23;;;;;;;-1.63;72.79;100862.06;10182339;29;20067;-68
2021/01/15 18:51:28;;;;;;;12.65;11.55;;;;;;;-1.66;73.06;100859.38;10178211;29;20546;-67
2021/01/15 18:56:29;;;;;;;13.35;12.15;;;;;;;-1.64;73.42;100873.19;10179474;29;20558;-67
2021/01/15 19:01:31;;;;;;;13.43;12.23;;;;;;;-1.85;74.09;100883.72;10179359;29;20044;-67
2021/01/15 19:06:34;;;;;;;14.05;12.55;;;;;;;-1.94;74.29;100864.50;10179206;29;20051;-65
2021/01/15 19:11:36;;;;;;;14.02;12.80;;;;;;;-1.80;73.88;100873.53;10178795;29;20100;-68
2021/01/15 19:16:42;;;;;;;13.35;12.25;;;;;;;-1.88;73.98;100875.88;10177060;29;20075;-67
2021/01/15 19:21:48;;;;;;;13.18;11.88;;;;;;;-1.90;73.68;100879.25;10178950;29;20048;-67
2021/01/15 19:26:49;;;;;;;14.20;12.80;;;;;;;-1.91;74.10;100872.31;10177697;29;20499;-67
2021/01/15 19:31:51;;;;;;;15.32;13.23;;;;;;;-1.93;73.96;100879.13;10177847;29;20052;-67
2021/01/15 19:36:53;;;;;;;13.77;12.48;;;;;;;-1.94;74.18;100892.84;10177372;29;20052;-68
2021/01/15 19:41:55;;;;;;;13.88;12.57;;;;;;;-1.95;74.07;100888.50;10177752;29;20075;-68
2021/01/15 19:46:58;;;;;;;19.58;17.63;;;;;;;-1.85;73.95;100885.41;10178521;29;20056;-68
2021/01/15 19:52:00;;;;;;;14.95;13.60;;;;;;;-1.81;73.44;100895.88;10179012;29;20100;-68
2021/01/15 19:57:02;;;;;;;13.90;12.35;;;;;;;-1.89;73.83;100896.44;10178238;29;20040;-68
2021/01/15 20:02:03;;;;;;;13.93;12.55;;;;;;;-2.01;73.99;100904.63;10180375;29;20450;-68
2021/01/15 20:07:04;;;;;;;13.70;12.40;;;;;;;-1.96;74.13;100909.94;10178980;29;20048;-69
2021/01/15 20:12:06;;;;;;;13.55;12.35;;;;;;;-1.97;73.69;100913.34;10176380;29;20052;-68
2021/01/15 20:17:08;;;;;;;17.10;12.65;;;;;;;-1.78;73.46;100903.66;10177553;29;20111;-68
2021/01/15 20:22:12;;;;;;;12.63;11.10;;;;;;;-1.85;72.76;100912.06;10178048;29;20044;-68
2021/01/15 20:27:13;;;;;;;12.32;11.23;;;;;;;-1.91;72.96;100910.97;10177567;29;20047;-68
2021/01/15 20:32:15;;;;;;;12.25;11.15;;;;;;;-1.90;73.33;100912.75;10177257;29;20048;-70
2021/01/15 20:37:17;;;;;;;12.00;10.90;;;;;;;-1.81;73.00;100918.19;10175870;29;20040;-70
2021/01/15 20:42:19;;;;;;;11.98;10.88;;;;;;;-1.97;73.02;100926.25;10176161;29;20048;-68
2021/01/15 20:47:20;;;;;;;13.00;11.52;;;;;;;-2.10;73.31;100922.38;10177599;29;20546;-68
2021/01/15 20:52:21;;;;;;;11.38;10.38;;;;;;;-2.11;73.13;100931.81;10175631;29;20470;-68
2021/01/15 20:57:23;;;;;;;12.10;11.00;;;;;;;-2.11;73.28;100928.34;10178316;29;20044;-68
2021/01/15 21:02:24;;;;;;;11.90;10.68;;;;;;;-2.14;73.05;100920.50;10177055;29;20040;-69
2021/01/15 21:07:26;;;;;;;11.38;10.27;;;;;;;-1.95;72.52;100925.44;10179286;29;20052;-68
2021/01/15 21:12:28;;;;;;;12.60;11.50;;;;;;;-2.08;73.00;100925.84;10185532;29;20068;-67
2021/01/15 21:17:29;;;;;;;11.35;10.35;;;;;;;-2.00;72.25;100933.84;10184841;29;20565;-67
2021/01/15 21:22:31;;;;;;;11.70;10.60;;;;;;;-1.96;72.32;100931.44;10185522;29;20040;-67
2021/01/15 21:27:32;;;;;;;11.00;10.00;;;;;;;-1.96;71.95;100930.56;10185256;29;20048;-70
2021/01/15 21:32:41;;;;;;;11.57;10.48;;;;;;;-1.93;71.79;100930.66;10184388;29;20051;-67
2021/01/15 21:37:48;;;;;;;10.05;9.15;;;;;;;-1.94;71.09;100939.22;10184847;29;20090;-67
2021/01/15 21:42:49;;;;;;;10.88;9.88;;;;;;;-1.87;71.54;100941.16;10183394;29;20103;-68
2021/01/15 21:47:51;;;;;;;11.80;10.60;;;;;;;-1.91;71.64;100944.47;10184224;29;20118;-67
2021/01/15 21:52:58;;;;;;;11.82;10.63;;;;;;;-2.08;72.01;100946.47;10183626;29;20127;-67
2021/01/15 21:58:00;;;;;;;12.27;11.00;;;;;;;-2.30;72.19;100939.75;10184441;29;20048;-68
2021/01/15 22:03:01;;;;;;;11.18;10.07;;;;;;;-2.06;71.24;100943.13;10182880;29;20047;-67
2021/01/15 22:08:03;;;;;;;11.45;10.32;;;;;;;-2.20;71.70;100941.81;10183830;29;20048;-67
2021/01/15 22:13:11;;;;;;;11.52;10.32;;;;;;;-2.05;71.74;100939.72;10182092;29;20047;-68
2021/01/15 22:18:13;;;;;;;11.57;10.57;;;;;;;-2.24;72.34;100945.09;10181932;29;20082;-68
2021/01/15 22:23:34;;;;;;;11.82;10.32;;;;;;;-2.14;72.00;100944.56;10183633;29;20543;-67
2021/01/15 22:28:38;;;;;;;12.77;11.57;;;;;;;-2.15;72.15;100950.56;10182699;29;20100;-67
2021/01/15 22:33:40;;;;;;;10.57;9.68;;;;;;;-2.21;72.52;100945.22;10182755;29;20060;-67
2021/01/15 22:38:42;;;;;;;10.40;9.50;;;;;;;-2.20;71.76;100938.34;10183255;29;20044;-69
2021/01/15 22:43:46;;;;;;;7.47;6.78;;;;;;;-2.22;69.76;100947.72;10183068;29;20068;-68
2021/01/15 22:48:47;;;;;;;5.35;4.85;;;;;;;-2.36;67.54;100953.25;10182570;29;20102;-68